Time;durP1;ratioP1;P1;durP2;ratioP2;P2;SDS_P1;SDS_P2;PMS_P1;PMS_P2;Temp;Humidity;BMP_temperature;BMP_pressure;BME280_temperature;BME280_humidity;BME280_pressure;Samples;Min_cycle;Max_cycle;Signal;HPM_P1;HPM_P2
2022/12/23 00:02:09;;;;;;;1.87;1.73;;;;;;;;;;10410330;28;20570;-63
2022/12/23 00:07:09;;;;;;;3.97;1.60;;;;;;;;;;10410320;28;20250;-63
2022/12/23 00:17:28;;;;;;;1.50;1.40;;;;;;;;;;10410269;28;20478;-63
2022/12/23 00:28:00;;;;;;;2.43;1.40;;;;;;;;;;10431604;22;20615;-58
2022/12/23 00:33:00;;;;;;;2.33;1.07;;;;;;;;;;10368333;28;20287;-59
2022/12/23 00:38:00;;;;;;;1.87;1.20;;;;;;;;;;10367263;28;20259;-60
2022/12/23 00:43:00;;;;;;;2.03;1.17;;;;;;;;;;10367301;28;20197;-59
2022/12/23 00:53:19;;;;;;;4.30;1.20;;;;;;;;;;10365599;28;20216;-59
2022/12/23 00:58:20;;;;;;;5.93;1.67;;;;;;;;;;10366017;28;20206;-61
2022/12/23 01:08:39;;;;;;;7.33;1.70;;;;;;;;;;10365498;28;20241;-60
2022/12/23 01:13:39;;;;;;;8.07;1.60;;;;;;;;;;10366766;28;20656;-60
2022/12/23 01:18:40;;;;;;;7.37;2.13;;;;;;;;;;10365813;28;20212;-60
2022/12/23 01:23:40;;;;;;;8.07;2.00;;;;;;;;;;10366042;28;20193;-60
2022/12/23 01:28:40;;;;;;;10.87;1.90;;;;;;;;;;10365713;28;20287;-60
2022/12/23 01:33:40;;;;;;;7.57;1.80;;;;;;;;;;10365345;28;20251;-59
2022/12/23 01:38:41;;;;;;;6.20;1.70;;;;;;;;;;10365570;28;20213;-60
2022/12/23 01:43:48;;;;;;;10.03;1.97;;;;;;;;;;10365512;28;20197;-58
2022/12/23 01:48:50;;;;;;;7.60;1.80;;;;;;;;;;10364951;28;20213;-59
2022/12/23 01:53:54;;;;;;;9.83;1.70;;;;;;;;;;10363514;28;20220;-60
2022/12/23 01:59:02;;;;;;;6.10;1.60;;;;;;;;;;10364502;28;20209;-58
2022/12/23 02:04:05;;;;;;;5.87;1.47;;;;;;;;;;10364308;28;20656;-60
2022/12/23 02:09:16;;;;;;;6.33;1.60;;;;;;;;;;10364838;28;20208;-60
2022/12/23 02:19:55;;;;;;;5.97;1.33;;;;;;;;;;10372848;28;20213;-58
2022/12/23 02:25:03;;;;;;;5.07;1.60;;;;;;;;;;10372496;28;20193;-59
2022/12/23 02:30:22;;;;;;;4.47;1.50;;;;;;;;;;10372908;28;20241;-60
2022/12/23 02:35:26;;;;;;;5.60;1.30;;;;;;;;;;10371504;28;20232;-61
2022/12/23 02:40:39;;;;;;;6.50;1.30;;;;;;;;;;10373071;28;20249;-60
2022/12/23 02:45:45;;;;;;;2.77;1.20;;;;;;;;;;10371763;28;20194;-58
2022/12/23 02:50:46;;;;;;;5.93;1.20;;;;;;;;;;10371303;28;20304;-59
2022/12/23 02:55:47;;;;;;;3.77;1.30;;;;;;;;;;10370502;28;20219;-59
2022/12/23 03:00:47;;;;;;;2.23;1.10;;;;;;;;;;10371542;28;20217;-59
2022/12/23 03:05:48;;;;;;;1.63;1.10;;;;;;;;;;10370699;28;20194;-59
2022/12/23 03:11:01;;;;;;;3.83;1.20;;;;;;;;;;10371636;28;20236;-54
2022/12/23 03:16:10;;;;;;;3.03;1.40;;;;;;;;;;10370488;28;20307;-60
2022/12/23 03:21:16;;;;;;;1.13;0.97;;;;;;;;;;10370010;28;20552;-60
2022/12/23 03:26:25;;;;;;;3.43;1.13;;;;;;;;;;10369485;28;20213;-60
2022/12/23 03:31:28;;;;;;;3.87;1.27;;;;;;;;;;10369182;28;20239;-59
2022/12/23 03:36:35;;;;;;;2.60;1.20;;;;;;;;;;10368654;28;20588;-56
2022/12/23 03:41:39;;;;;;;5.00;1.10;;;;;;;;;;10370409;28;20304;-59
2022/12/23 03:46:42;;;;;;;0.60;0.60;;;;;;;;;;10369234;28;20277;-59
2022/12/23 03:51:46;;;;;;;0.80;0.80;;;;;;;;;;10368160;28;20961;-58
2022/12/23 03:56:51;;;;;;;0.70;0.63;;;;;;;;;;10369141;28;20659;-58
2022/12/23 04:02:07;;;;;;;1.67;0.80;;;;;;;;;;10363035;28;20182;-59
2022/12/23 04:07:15;;;;;;;1.63;0.80;;;;;;;;;;10323143;28;20208;-58
2022/12/23 04:12:15;;;;;;;0.57;0.57;;;;;;;;;;10320266;28;20593;-60
2022/12/23 04:17:16;;;;;;;2.33;0.87;;;;;;;;;;10320860;28;20210;-56
2022/12/23 04:22:16;;;;;;;0.50;0.50;;;;;;;;;;10321549;28;20198;-59
2022/12/23 04:27:16;;;;;;;1.17;0.60;;;;;;;;;;10320742;28;20252;-57
2022/12/23 04:32:16;;;;;;;0.50;0.50;;;;;;;;;;10319762;28;20721;-57
2022/12/23 04:37:16;;;;;;;0.77;0.77;;;;;;;;;;10321243;28;20197;-59
2022/12/23 04:42:17;;;;;;;0.67;0.50;;;;;;;;;;10320532;28;20205;-55
2022/12/23 04:47:17;;;;;;;0.60;0.60;;;;;;;;;;10320115;28;20244;-57
2022/12/23 04:52:17;;;;;;;0.50;0.50;;;;;;;;;;10319318;28;20225;-56
2022/12/23 04:57:17;;;;;;;0.83;0.60;;;;;;;;;;10319239;28;20692;-56
2022/12/23 05:02:17;;;;;;;2.37;0.60;;;;;;;;;;10322686;28;20193;-58
2022/12/23 05:07:18;;;;;;;0.50;0.50;;;;;;;;;;10326530;28;20688;-53
2022/12/23 05:12:18;;;;;;;1.03;0.60;;;;;;;;;;10326690;28;20225;-60
2022/12/23 05:17:18;;;;;;;0.60;0.60;;;;;;;;;;10325626;28;20264;-56
2022/12/23 05:22:18;;;;;;;0.70;0.70;;;;;;;;;;10326491;28;20683;-58
2022/12/23 05:27:18;;;;;;;0.57;0.57;;;;;;;;;;10325909;28;20617;-57
2022/12/23 05:32:18;;;;;;;0.60;0.60;;;;;;;;;;10325633;28;20256;-57
2022/12/23 05:37:19;;;;;;;0.70;0.70;;;;;;;;;;10326149;28;20666;-57
2022/12/23 05:42:19;;;;;;;0.80;0.80;;;;;;;;;;10325079;28;20217;-55
2022/12/23 05:47:19;;;;;;;0.60;0.60;;;;;;;;;;10325499;28;20205;-59
2022/12/23 05:52:19;;;;;;;0.80;0.80;;;;;;;;;;10324931;28;20277;-58
2022/12/23 05:57:19;;;;;;;1.63;0.60;;;;;;;;;;10325034;28;20206;-59
2022/12/23 06:02:20;;;;;;;1.17;0.90;;;;;;;;;;10325067;28;20198;-54
2022/12/23 06:07:20;;;;;;;1.30;0.80;;;;;;;;;;10325321;28;20283;-54
2022/12/23 06:12:21;;;;;;;1.27;0.70;;;;;;;;;;10325085;28;20225;-59
2022/12/23 06:17:21;;;;;;;1.63;0.80;;;;;;;;;;10324946;28;20348;-58
2022/12/23 06:22:22;;;;;;;0.80;0.80;;;;;;;;;;10325526;28;20201;-56
2022/12/23 06:27:22;;;;;;;1.03;0.90;;;;;;;;;;10352625;23;20249;-54
2022/12/23 06:32:23;;;;;;;0.50;0.50;;;;;;;;;;10447088;28;20678;-56
2022/12/23 06:37:23;;;;;;;0.80;0.80;;;;;;;;;;10447065;28;20273;-51
2022/12/23 06:42:24;;;;;;;2.73;0.80;;;;;;;;;;10447237;28;20578;-55
2022/12/23 06:47:24;;;;;;;2.73;0.80;;;;;;;;;;10447086;28;20631;-50
2022/12/23 06:52:24;;;;;;;0.93;0.77;;;;;;;;;;10446602;28;20246;-59
2022/12/23 06:57:24;;;;;;;0.90;0.80;;;;;;;;;;10448377;28;20200;-55
2022/12/23 07:02:24;;;;;;;1.10;0.60;;;;;;;;;;10454005;28;20220;-55
2022/12/23 07:07:24;;;;;;;1.20;1.10;;;;;;;;;;10454119;28;20212;-53
2022/12/23 07:12:25;;;;;;;0.80;0.80;;;;;;;;;;10453503;28;20686;-56
2022/12/23 07:17:25;;;;;;;3.97;2.40;;;;;;;;;;10453333;28;20257;-57
2022/12/23 07:22:25;;;;;;;13.20;9.70;;;;;;;;;;10451125;28;20184;-61
2022/12/23 07:27:25;;;;;;;1.53;1.43;;;;;;;;;;10453474;28;20287;-57
2022/12/23 07:32:25;;;;;;;1.63;1.17;;;;;;;;;;10452919;28;20212;-62
2022/12/23 07:37:25;;;;;;;1.40;1.10;;;;;;;;;;10437409;28;20686;-59
2022/12/23 07:42:26;;;;;;;6.07;2.00;;;;;;;;;;10448694;28;20184;-59
2022/12/23 07:47:26;;;;;;;1.40;1.10;;;;;;;;;;10448959;28;20626;-57
2022/12/23 07:52:27;;;;;;;1.93;1.27;;;;;;;;;;10449408;28;20302;-57
2022/12/23 07:57:28;;;;;;;2.17;1.40;;;;;;;;;;10449264;28;20447;-55
2022/12/23 08:02:28;;;;;;;1.00;1.00;;;;;;;;;;10450527;28;20192;-61
2022/12/23 08:07:28;;;;;;;0.80;0.80;;;;;;;;;;10447392;28;20721;-60
2022/12/23 08:12:28;;;;;;;0.90;0.90;;;;;;;;;;10445705;28;20254;-61
2022/12/23 08:17:29;;;;;;;1.40;1.30;;;;;;;;;;10447059;28;20216;-58
2022/12/23 08:22:29;;;;;;;0.90;0.90;;;;;;;;;;10445672;28;20696;-60
2022/12/23 08:27:30;;;;;;;3.13;1.10;;;;;;;;;;10446692;28;20235;-55
2022/12/23 08:32:30;;;;;;;0.90;0.90;;;;;;;;;;10448384;28;20714;-58
2022/12/23 08:37:30;;;;;;;1.50;1.40;;;;;;;;;;10447363;28;20208;-58
2022/12/23 08:42:30;;;;;;;3.03;2.23;;;;;;;;;;10445784;28;20196;-55
2022/12/23 08:47:30;;;;;;;2.80;1.00;;;;;;;;;;10447986;28;20315;-62
2022/12/23 08:52:30;;;;;;;1.23;1.10;;;;;;;;;;10446167;28;20269;-57
2022/12/23 08:57:32;;;;;;;1.00;1.00;;;;;;;;;;10446789;28;20299;-58
2022/12/23 09:02:32;;;;;;;1.00;1.00;;;;;;;;;;10447097;28;20687;-59
2022/12/23 09:07:32;;;;;;;2.60;2.17;;;;;;;;;;10445671;28;20246;-61
2022/12/23 09:12:33;;;;;;;1.00;1.00;;;;;;;;;;10445766;28;20223;-57
2022/12/23 09:17:33;;;;;;;0.93;0.90;;;;;;;;;;10444123;28;20204;-60
2022/12/23 09:22:33;;;;;;;0.90;0.90;;;;;;;;;;10445307;28;20730;-62
2022/12/23 09:27:33;;;;;;;1.20;1.13;;;;;;;;;;10442754;28;20693;-59
2022/12/23 09:32:33;;;;;;;1.03;0.90;;;;;;;;;;10440830;28;20219;-62
2022/12/23 09:37:34;;;;;;;2.07;1.00;;;;;;;;;;10446686;28;20210;-60
2022/12/23 09:42:42;;;;;;;1.50;1.00;;;;;;;;;;10445276;28;20204;-55
2022/12/23 09:47:43;;;;;;;1.47;1.20;;;;;;;;;;10440390;28;20898;-59
2022/12/23 09:53:02;;;;;;;0.90;0.90;;;;;;;;;;10443826;28;20358;-56
2022/12/23 09:58:08;;;;;;;1.20;1.10;;;;;;;;;;10443287;28;20211;-61
2022/12/23 10:03:40;;;;;;;1.10;1.10;;;;;;;;;;10444438;28;20188;-56
2022/12/23 10:08:43;;;;;;;1.20;1.00;;;;;;;;;;10410825;28;20252;-63
2022/12/23 10:13:59;;;;;;;1.50;1.40;;;;;;;;;;10444746;28;20250;-61
2022/12/23 10:19:05;;;;;;;1.03;1.03;;;;;;;;;;10442164;28;20276;-61
2022/12/23 10:24:11;;;;;;;1.70;1.60;;;;;;;;;;10443917;28;20235;-63
2022/12/23 10:29:11;;;;;;;1.60;1.50;;;;;;;;;;10445157;28;20228;-59
2022/12/23 10:34:16;;;;;;;1.30;1.20;;;;;;;;;;10449800;28;20427;-60
2022/12/23 10:39:16;;;;;;;3.30;2.47;;;;;;;;;;10452417;28;20238;-60
2022/12/23 10:44:25;;;;;;;2.53;1.97;;;;;;;;;;10452327;28;20711;-62
2022/12/23 10:49:27;;;;;;;2.30;2.10;;;;;;;;;;10450740;28;20219;-63
2022/12/23 10:54:31;;;;;;;2.10;1.90;;;;;;;;;;10449921;28;20712;-60
2022/12/23 10:59:32;;;;;;;1.80;1.63;;;;;;;;;;10452282;28;21007;-62
2022/12/23 11:04:33;;;;;;;2.40;1.60;;;;;;;;;;10450214;28;20191;-64
2022/12/23 11:09:46;;;;;;;1.63;1.53;;;;;;;;;;10451537;28;20228;-61
2022/12/23 11:14:55;;;;;;;1.90;1.80;;;;;;;;;;10450792;28;20216;-62
2022/12/23 11:20:12;;;;;;;1.77;1.60;;;;;;;;;;10450355;28;20751;-63
2022/12/23 11:25:31;;;;;;;2.80;1.57;;;;;;;;;;10449459;28;20203;-61
2022/12/23 11:30:34;;;;;;;1.47;1.30;;;;;;;;;;10449916;28;20236;-61
2022/12/23 11:35:35;;;;;;;1.67;1.30;;;;;;;;;;10450339;28;20303;-61
2022/12/23 11:40:36;;;;;;;1.50;1.40;;;;;;;;;;10449052;28;20212;-64
2022/12/23 11:45:37;;;;;;;2.37;1.50;;;;;;;;;;10448995;28;20250;-58
2022/12/23 11:50:38;;;;;;;1.40;1.30;;;;;;;;;;10450022;28;20235;-62
2022/12/23 11:55:43;;;;;;;3.50;1.40;;;;;;;;;;10448273;28;20230;-57
2022/12/23 12:00:49;;;;;;;2.70;1.40;;;;;;;;;;10448015;28;20556;-61
2022/12/23 12:05:51;;;;;;;1.43;1.33;;;;;;;;;;10449615;28;20608;-61
2022/12/23 12:10:52;;;;;;;1.40;1.30;;;;;;;;;;10448908;28;20277;-61
2022/12/23 12:16:08;;;;;;;1.63;1.50;;;;;;;;;;10447200;28;20219;-61
2022/12/23 12:21:11;;;;;;;5.23;1.40;;;;;;;;;;10450371;28;20204;-60
2022/12/23 12:26:16;;;;;;;1.47;1.37;;;;;;;;;;10445977;28;20208;-61
2022/12/23 12:31:22;;;;;;;1.67;1.50;;;;;;;;;;10448893;22;20241;-62
2022/12/23 12:36:22;;;;;;;1.60;1.50;;;;;;;;;;10376752;28;20236;-62
2022/12/23 12:41:32;;;;;;;1.93;1.23;;;;;;;;;;10365223;28;20707;-62
2022/12/23 12:46:35;;;;;;;2.00;1.30;;;;;;;;;;10363460;28;20201;-60
2022/12/23 12:51:41;;;;;;;1.17;1.17;;;;;;;;;;10366503;28;20207;-62
2022/12/23 12:56:45;;;;;;;2.03;1.27;;;;;;;;;;10388211;28;20228;-62
2022/12/23 13:02:04;;;;;;;1.60;1.50;;;;;;;;;;10401555;28;20201;-63
2022/12/23 13:07:13;;;;;;;1.00;1.00;;;;;;;;;;10404135;28;20203;-63
2022/12/23 13:12:19;;;;;;;7.50;5.80;;;;;;;;;;10405116;28;20213;-61
2022/12/23 13:17:24;;;;;;;1.63;1.50;;;;;;;;;;10404356;28;20193;-62
2022/12/23 13:22:31;;;;;;;3.17;1.30;;;;;;;;;;10403969;28;20250;-61
2022/12/23 13:27:54;;;;;;;2.40;2.20;;;;;;;;;;10405213;28;20188;-62
2022/12/23 13:33:07;;;;;;;2.57;1.90;;;;;;;;;;10402501;28;20282;-62
2022/12/23 13:38:28;;;;;;;1.90;1.50;;;;;;;;;;10403788;28;20242;-60
2022/12/23 13:43:36;;;;;;;1.50;1.40;;;;;;;;;;10404198;28;20205;-61
2022/12/23 13:48:36;;;;;;;1.60;1.40;;;;;;;;;;10400015;28;20221;-60
2022/12/23 13:54:01;;;;;;;1.57;1.47;;;;;;;;;;10376158;28;20213;-59
2022/12/23 13:59:01;;;;;;;3.27;2.60;;;;;;;;;;10378032;28;20291;-60
2022/12/23 14:04:20;;;;;;;1.50;1.40;;;;;;;;;;10381680;28;20187;-59
2022/12/23 14:09:26;;;;;;;8.10;4.20;;;;;;;;;;10390144;28;20212;-62
2022/12/23 14:14:27;;;;;;;1.50;1.40;;;;;;;;;;10381279;28;20797;-62
2022/12/23 14:19:34;;;;;;;2.53;1.77;;;;;;;;;;10372585;28;20313;-61
2022/12/23 14:24:53;;;;;;;2.63;1.77;;;;;;;;;;10369438;28;20277;-61
2022/12/23 14:30:14;;;;;;;12.37;11.27;;;;;;;;;;10370744;28;20739;-61
2022/12/23 14:35:47;;;;;;;1.60;1.50;;;;;;;;;;10371327;28;20741;-61
2022/12/23 14:40:49;;;;;;;2.97;2.60;;;;;;;;;;10410575;28;20205;-62
2022/12/23 14:45:58;;;;;;;4.03;3.43;;;;;;;;;;10409942;28;20196;-61
2022/12/23 14:51:07;;;;;;;3.27;2.77;;;;;;;;;;10409964;28;20213;-61
2022/12/23 14:56:13;;;;;;;11.77;9.00;;;;;;;;;;10409872;28;20334;-61
2022/12/23 15:01:15;;;;;;;3.43;2.40;;;;;;;;;;10412118;28;20595;-62
2022/12/23 15:06:30;;;;;;;3.30;2.53;;;;;;;;;;10414430;28;20189;-61
2022/12/23 15:11:35;;;;;;;3.83;2.33;;;;;;;;;;10450369;28;20706;-63
2022/12/23 15:16:46;;;;;;;1.80;1.53;;;;;;;;;;10455954;28;20717;-62
2022/12/23 15:21:47;;;;;;;3.17;2.10;;;;;;;;;;10451397;28;20262;-62
2022/12/23 15:26:49;;;;;;;2.93;2.10;;;;;;;;;;10451802;28;20258;-62
2022/12/23 15:31:50;;;;;;;2.50;2.00;;;;;;;;;;10422535;28;20287;-62
2022/12/23 15:36:53;;;;;;;2.80;2.03;;;;;;;;;;10378278;28;20229;-62
2022/12/23 15:41:54;;;;;;;3.73;1.70;;;;;;;;;;10387305;28;20212;-62
2022/12/23 15:46:54;;;;;;;2.07;1.70;;;;;;;;;;10383639;28;20944;-63
2022/12/23 15:51:57;;;;;;;1.67;1.40;;;;;;;;;;10407991;28;20208;-61
2022/12/23 15:56:59;;;;;;;5.87;4.10;;;;;;;;;;10407525;28;20733;-61
2022/12/23 16:02:18;;;;;;;10.20;7.87;;;;;;;;;;10407678;28;20240;-61
2022/12/23 16:07:25;;;;;;;9.37;7.43;;;;;;;;;;10406681;28;20193;-61
2022/12/23 16:12:26;;;;;;;17.17;11.17;;;;;;;;;;10405249;28;20220;-62
2022/12/23 16:17:31;;;;;;;15.27;12.27;;;;;;;;;;10408279;28;20192;-62
2022/12/23 16:22:36;;;;;;;14.77;11.67;;;;;;;;;;10405756;28;20209;-60
2022/12/23 16:27:41;;;;;;;3.63;3.33;;;;;;;;;;10396761;28;20342;-61
2022/12/23 16:32:53;;;;;;;3.50;3.00;;;;;;;;;;10362083;28;20237;-60
2022/12/23 16:37:58;;;;;;;4.50;3.03;;;;;;;;;;10395493;28;20558;-60
2022/12/23 16:42:58;;;;;;;83.20;45.37;;;;;;;;;;10401356;28;20193;-61
2022/12/23 16:47:59;;;;;;;7.10;6.37;;;;;;;;;;10401081;28;20207;-61
2022/12/23 16:52:59;;;;;;;2.87;2.37;;;;;;;;;;10399144;28;20220;-62
2022/12/23 16:57:59;;;;;;;3.73;2.73;;;;;;;;;;10402377;28;20207;-61
2022/12/23 17:02:59;;;;;;;12.30;6.77;;;;;;;;;;10406134;28;20184;-62
2022/12/23 17:08:07;;;;;;;3.13;2.20;;;;;;;;;;10402086;28;20228;-63
2022/12/23 17:13:15;;;;;;;2.80;2.60;;;;;;;;;;10407835;28;20224;-63
2022/12/23 17:18:16;;;;;;;2.33;2.10;;;;;;;;;;10395814;28;20216;-63
2022/12/23 17:23:25;;;;;;;3.13;2.70;;;;;;;;;;10373487;28;20574;-61
2022/12/23 17:28:29;;;;;;;5.53;2.70;;;;;;;;;;10366779;28;20260;-61
2022/12/23 17:33:31;;;;;;;3.83;2.70;;;;;;;;;;10366270;28;20287;-62
2022/12/23 17:38:31;;;;;;;5.90;3.90;;;;;;;;;;10414569;28;20200;-61
2022/12/23 17:43:31;;;;;;;5.43;3.93;;;;;;;;;;10385541;28;20954;-60
2022/12/23 17:48:31;;;;;;;5.13;3.30;;;;;;;;;;10403031;28;20265;-61
2022/12/23 17:53:31;;;;;;;5.87;3.10;;;;;;;;;;10405855;28;20304;-60
2022/12/23 17:58:32;;;;;;;4.47;2.13;;;;;;;;;;10404883;28;20569;-61
2022/12/23 18:03:32;;;;;;;2.93;2.10;;;;;;;;;;10404727;28;20287;-59
2022/12/23 18:08:32;;;;;;;2.67;1.90;;;;;;;;;;10399538;28;20204;-60
2022/12/23 18:13:33;;;;;;;2.80;2.00;;;;;;;;;;10406744;28;20255;-58
2022/12/23 18:18:34;;;;;;;3.03;2.00;;;;;;;;;;10405559;28;20706;-58
2022/12/23 18:23:36;;;;;;;1.80;1.50;;;;;;;;;;10406180;28;20200;-61
2022/12/23 18:33:38;;;;;;;3.10;1.60;;;;;;;;;;10282765;28;20262;-61
2022/12/23 18:38:38;;;;;;;3.73;2.00;;;;;;;;;;10285623;28;20661;-62
2022/12/23 18:43:38;;;;;;;2.60;1.93;;;;;;;;;;10282904;28;20195;-61
2022/12/23 18:48:38;;;;;;;2.93;2.10;;;;;;;;;;10283077;28;20199;-63
2022/12/23 18:53:38;;;;;;;2.73;2.30;;;;;;;;;;10286708;28;20276;-62
2022/12/23 18:58:39;;;;;;;5.07;3.10;;;;;;;;;;10289499;28;20222;-61
2022/12/23 19:03:39;;;;;;;3.63;3.07;;;;;;;;;;10290294;28;20429;-62
2022/12/23 19:08:40;;;;;;;3.87;3.20;;;;;;;;;;10290708;28;20194;-62
2022/12/23 19:13:40;;;;;;;5.53;3.53;;;;;;;;;;10290325;28;20749;-63
2022/12/23 19:18:40;;;;;;;3.10;2.63;;;;;;;;;;10288867;28;20183;-62
2022/12/23 19:23:41;;;;;;;4.80;3.60;;;;;;;;;;10289660;28;20561;-63
2022/12/23 19:28:41;;;;;;;4.70;3.77;;;;;;;;;;10288939;28;20500;-61
2022/12/23 19:33:42;;;;;;;11.60;9.33;;;;;;;;;;10289527;28;20580;-62
2022/12/23 19:38:42;;;;;;;7.87;7.07;;;;;;;;;;10288821;28;20193;-62
2022/12/23 19:43:44;;;;;;;10.43;8.70;;;;;;;;;;10289012;28;20187;-62
2022/12/23 19:48:48;;;;;;;3.43;2.83;;;;;;;;;;10288275;28;20221;-61
2022/12/23 19:53:50;;;;;;;4.07;3.60;;;;;;;;;;10289296;28;20297;-61
2022/12/23 19:58:50;;;;;;;4.97;3.53;;;;;;;;;;10286760;28;20257;-60
2022/12/23 20:03:51;;;;;;;2.90;2.53;;;;;;;;;;10288356;28;20245;-61
2022/12/23 20:08:52;;;;;;;7.20;4.33;;;;;;;;;;10287894;28;20194;-61
2022/12/23 20:13:52;;;;;;;5.23;3.47;;;;;;;;;;10286947;28;20227;-61
2022/12/23 20:18:53;;;;;;;5.43;4.93;;;;;;;;;;10288298;28;20986;-58
2022/12/23 20:23:53;;;;;;;11.37;10.17;;;;;;;;;;10287148;28;20253;-61
2022/12/23 20:28:53;;;;;;;7.13;5.53;;;;;;;;;;10286719;28;20199;-61
2022/12/23 20:33:54;;;;;;;2.70;2.50;;;;;;;;;;10286914;28;20233;-61
2022/12/23 20:38:55;;;;;;;1.70;1.60;;;;;;;;;;10287127;28;20689;-59
2022/12/23 20:43:55;;;;;;;1.57;1.27;;;;;;;;;;10285989;28;20438;-61
2022/12/23 20:48:56;;;;;;;1.50;1.40;;;;;;;;;;10286508;28;20214;-60
2022/12/23 20:53:59;;;;;;;2.60;2.40;;;;;;;;;;10285963;28;20214;-61
2022/12/23 20:59:02;;;;;;;2.70;2.50;;;;;;;;;;10285576;28;20207;-61
2022/12/23 21:04:04;;;;;;;4.23;3.67;;;;;;;;;;10286260;28;20183;-61
2022/12/23 21:09:05;;;;;;;3.23;2.93;;;;;;;;;;10285688;28;20214;-61
2022/12/23 21:14:06;;;;;;;3.10;2.43;;;;;;;;;;10284982;28;20558;-61
2022/12/23 21:19:07;;;;;;;2.83;2.10;;;;;;;;;;10284662;28;20207;-61
2022/12/23 21:24:08;;;;;;;0.73;0.73;;;;;;;;;;10239457;28;20201;-61
2022/12/23 21:29:09;;;;;;;0.70;0.70;;;;;;;;;;10237616;29;20313;-60
2022/12/23 21:34:13;;;;;;;0.77;0.70;;;;;;;;;;10237577;28;20215;-61
2022/12/23 21:39:14;;;;;;;0.70;0.70;;;;;;;;;;10236793;28;20567;-61
2022/12/23 21:44:14;;;;;;;0.77;0.77;;;;;;;;;;10237499;28;20730;-61
2022/12/23 21:49:14;;;;;;;0.60;0.60;;;;;;;;;;10237109;28;20219;-60
2022/12/23 21:54:14;;;;;;;0.60;0.60;;;;;;;;;;10241428;28;20309;-59
2022/12/23 21:59:14;;;;;;;0.70;0.70;;;;;;;;;;10241675;28;20223;-61
2022/12/23 22:04:15;;;;;;;0.70;0.70;;;;;;;;;;10244435;28;20647;-61
2022/12/23 22:09:16;;;;;;;0.73;0.73;;;;;;;;;;10243964;28;20265;-62
2022/12/23 22:14:17;;;;;;;0.60;0.60;;;;;;;;;;10243537;28;20223;-61
2022/12/23 22:19:17;;;;;;;0.70;0.70;;;;;;;;;;10245351;28;20201;-61
2022/12/23 22:24:18;;;;;;;0.80;0.80;;;;;;;;;;10244222;28;20195;-61
2022/12/23 22:29:18;;;;;;;0.73;0.73;;;;;;;;;;10250448;28;20227;-62
2022/12/23 22:34:19;;;;;;;0.60;0.60;;;;;;;;;;10252637;28;20223;-61
2022/12/23 22:39:19;;;;;;;0.73;0.73;;;;;;;;;;10251743;28;20199;-61
2022/12/23 22:44:20;;;;;;;1.20;1.00;;;;;;;;;;10252319;28;20666;-62
2022/12/23 22:49:20;;;;;;;2.67;1.47;;;;;;;;;;10252377;28;20219;-62
2022/12/23 22:54:20;;;;;;;1.30;1.00;;;;;;;;;;10251946;28;20254;-62
2022/12/23 22:59:21;;;;;;;3.17;1.00;;;;;;;;;;10251298;28;20258;-62
2022/12/23 23:04:22;;;;;;;1.00;1.00;;;;;;;;;;10251677;28;20286;-60
2022/12/23 23:09:22;;;;;;;2.13;1.03;;;;;;;;;;10251408;28;20218;-62
2022/12/23 23:14:22;;;;;;;1.43;1.10;;;;;;;;;;10251263;28;20362;-60
2022/12/23 23:19:22;;;;;;;1.23;0.90;;;;;;;;;;10251476;28;20211;-62
2022/12/23 23:24:22;;;;;;;2.40;1.20;;;;;;;;;;10250814;28;20210;-63
2022/12/23 23:29:23;;;;;;;2.47;1.13;;;;;;;;;;10251247;28;20326;-63
2022/12/23 23:34:23;;;;;;;3.73;1.30;;;;;;;;;;10250171;28;20754;-63
2022/12/23 23:39:23;;;;;;;2.17;1.17;;;;;;;;;;10250402;28;20563;-63
2022/12/23 23:44:23;;;;;;;4.93;1.10;;;;;;;;;;10250181;28;20203;-61
2022/12/23 23:49:23;;;;;;;2.90;1.30;;;;;;;;;;10250540;28;20323;-63
2022/12/23 23:54:24;;;;;;;1.90;1.20;;;;;;;;;;10249410;28;20227;-62
2022/12/23 23:59:24;;;;;;;3.43;1.40;;;;;;;;;;10249996;28;20203;-63
